Évènement client.

Quelques informations.

Évènementiel

Vous voulez faire vivre une expérience unique à vos collaborateurs, clients, fournisseurs ou partenaires ?

Nous sommes à l’écoute pour concevoir un évènement à votre image, votre évènement sur-mesure en France et en Europe.

Nous nous assurons du bon déroulement de vos évènements en coordonnant les différents intervenants : pilotes, mécaniciens, prestataires, terrains d’accueil…

ils l'ont fait

Autres prestations.

Vol en L39.
Formations.
METAR :

LFQA 231500Z AUTO 30004KT 240V010 CAVOK 24/11 Q1019


vue en direct sur l'aérodrome
facturation mentions légales politique de confidentialité
Cochet Concept
cx